createdAt,value
2023-04-24T00:01:11.628Z,84.07
2023-04-24T00:03:40.654Z,84.34
2023-04-24T00:06:11.862Z,84.32
2023-04-24T00:08:39.926Z,84.59
2023-04-24T00:11:08.114Z,84.59
2023-04-24T00:13:36.586Z,84.81
2023-04-24T00:16:05.046Z,85.03
2023-04-24T00:18:33.329Z,85.15
2023-04-24T00:21:01.403Z,85.33
2023-04-24T00:23:29.575Z,85.37
2023-04-24T00:25:57.744Z,85.54
2023-04-24T00:28:25.918Z,85.73
2023-04-24T00:30:55.123Z,85.88
2023-04-24T00:33:23.287Z,86.11
2023-04-24T00:35:51.358Z,86.36
2023-04-24T00:38:19.813Z,86.74
2023-04-24T00:40:51.064Z,86.75
2023-04-24T00:43:19.254Z,86.93
2023-04-24T00:45:47.710Z,87.17
2023-04-24T00:48:16.029Z,87.26
2023-04-24T00:50:44.281Z,87.19
2023-04-24T00:53:12.602Z,87.50
2023-04-24T00:55:41.353Z,87.65
2023-04-24T00:58:09.625Z,87.65
2023-04-24T01:00:38.207Z,87.66
2023-04-24T01:03:07.348Z,87.62
2023-04-24T01:05:35.791Z,87.63
2023-04-24T01:08:04.372Z,87.62
2023-04-24T01:10:34.988Z,87.78
2023-04-24T01:13:03.160Z,87.86
2023-04-24T01:15:31.435Z,87.73
2023-04-24T01:17:59.654Z,87.79
2023-04-24T01:20:27.987Z,87.86
2023-04-24T01:22:57.692Z,87.93
2023-04-24T01:25:27.094Z,88.03
2023-04-24T01:27:55.281Z,88.07
2023-04-24T01:30:23.443Z,88.34
2023-04-24T01:32:53.016Z,88.41
2023-04-24T01:35:21.731Z,88.42
2023-04-24T01:37:49.902Z,88.23
2023-04-24T01:40:18.077Z,88.41
2023-04-24T01:42:46.564Z,88.70
2023-04-24T01:45:14.723Z,88.84
2023-04-24T01:47:43.156Z,89.00
2023-04-24T01:50:11.796Z,88.97
2023-04-24T01:52:40.882Z,88.75
2023-04-24T01:55:11.818Z,88.69
2023-04-24T01:57:40.295Z,88.95
2023-04-24T02:00:09.084Z,88.97
2023-04-24T02:02:45.699Z,89.02
2023-04-24T02:05:16.200Z,89.25
2023-04-24T02:07:44.360Z,89.40
2023-04-24T02:10:12.626Z,89.51
2023-04-24T02:12:44.279Z,89.70
2023-04-24T02:15:13.383Z,89.76
2023-04-24T02:17:41.708Z,89.72
2023-04-24T02:20:10.048Z,89.79
2023-04-24T02:22:40.558Z,89.61
2023-04-24T02:25:09.541Z,89.75
2023-04-24T02:27:37.729Z,89.96
2023-04-24T02:30:08.773Z,89.44
2023-04-24T02:32:37.137Z,89.50
2023-04-24T02:35:06.056Z,89.72
2023-04-24T02:37:34.406Z,89.94
2023-04-24T02:40:02.876Z,90.04
2023-04-24T02:42:31.254Z,90.05
2023-04-24T02:44:59.867Z,90.06
2023-04-24T02:47:28.232Z,90.27
2023-04-24T02:49:56.500Z,90.38
2023-04-24T02:52:24.758Z,90.38
2023-04-24T02:54:52.933Z,90.65
2023-04-24T02:57:21.104Z,90.58
2023-04-24T02:59:49.482Z,90.49
2023-04-24T03:02:17.818Z,90.28
2023-04-24T03:04:46.573Z,90.05
2023-04-24T03:07:15.613Z,89.90
2023-04-24T03:09:45.240Z,90.25
2023-04-24T03:12:13.519Z,90.64
2023-04-24T03:14:41.688Z,91.06
2023-04-24T03:17:09.962Z,91.43
2023-04-24T03:19:38.134Z,91.69
2023-04-24T03:22:10.725Z,91.94
2023-04-24T03:24:39.503Z,92.20
2023-04-24T03:27:08.008Z,92.33
2023-04-24T03:30:03.493Z,92.59
2023-04-24T03:32:52.105Z,92.41
2023-04-24T03:35:24.420Z,92.21
2023-04-24T03:37:53.201Z,92.16
2023-04-24T03:40:41.648Z,92.14
2023-04-24T03:43:23.026Z,91.73
2023-04-24T03:45:52.077Z,91.72
2023-04-24T03:48:21.215Z,91.87
2023-04-24T03:50:50.006Z,92.15
2023-04-24T03:53:18.280Z,92.22
2023-04-24T03:55:47.276Z,92.21
2023-04-24T03:58:16.567Z,92.20
2023-04-24T04:00:45.764Z,92.19
2023-04-24T04:03:37.496Z,92.14
2023-04-24T04:06:06.272Z,92.19
2023-04-24T04:08:34.752Z,92.29
2023-04-24T04:11:05.123Z,92.47
2023-04-24T04:13:33.864Z,92.25
2023-04-24T04:16:02.159Z,92.43
2023-04-24T04:18:30.719Z,92.09
2023-04-24T04:20:59.094Z,92.17
2023-04-24T04:23:27.163Z,92.17
2023-04-24T04:26:15.510Z,92.28
2023-04-24T04:29:10.202Z,91.97
2023-04-24T04:31:42.323Z,91.64
2023-04-24T04:34:14.331Z,91.53
2023-04-24T04:36:44.863Z,91.57
2023-04-24T04:39:22.969Z,91.51
2023-04-24T04:42:01.786Z,91.55
2023-04-24T04:44:37.035Z,91.39
2023-04-24T04:47:06.839Z,91.51
2023-04-24T04:49:39.710Z,91.19
2023-04-24T04:52:11.267Z,91.28
2023-04-24T04:54:39.643Z,91.27
2023-04-24T04:57:08.332Z,91.47
2023-04-24T04:59:36.706Z,91.67
2023-04-24T05:02:07.523Z,91.70
2023-04-24T05:04:36.155Z,91.50
2023-04-24T05:07:04.827Z,91.36
2023-04-24T05:09:34.010Z,91.38
2023-04-24T05:12:05.150Z,91.50
2023-04-24T05:14:36.601Z,91.40
2023-04-24T05:17:05.350Z,91.21
2023-04-24T05:19:37.079Z,91.20
2023-04-24T05:22:07.939Z,91.10
2023-04-24T05:24:37.803Z,90.96
2023-04-24T05:27:16.311Z,90.60
2023-04-24T05:29:45.295Z,90.55
2023-04-24T05:32:14.079Z,90.45
2023-04-24T05:34:42.454Z,90.47
2023-04-24T05:37:11.447Z,90.48
2023-04-24T05:39:39.733Z,90.46
2023-04-24T05:42:08.504Z,90.03
2023-04-24T05:44:36.579Z,89.92
2023-04-24T05:47:04.853Z,90.00
2023-04-24T05:49:33.947Z,90.02
2023-04-24T05:52:04.370Z,89.95
2023-04-24T05:54:32.652Z,89.88
2023-04-24T05:57:01.536Z,89.97
2023-04-24T05:59:39.713Z,89.74
2023-04-24T06:02:08.904Z,89.98
2023-04-24T06:04:37.620Z,89.66
2023-04-24T06:07:06.514Z,89.71
2023-04-24T06:09:35.125Z,89.65
2023-04-24T06:12:03.879Z,89.67
2023-04-24T06:14:41.268Z,89.88
2023-04-24T06:17:42.032Z,89.70
2023-04-24T06:20:12.197Z,89.48
2023-04-24T06:22:41.315Z,89.42
2023-04-24T06:25:09.914Z,89.62
2023-04-24T06:27:38.070Z,89.58
2023-04-24T06:30:07.681Z,89.52
2023-04-24T06:32:35.870Z,89.37
2023-04-24T06:35:05.228Z,89.61
2023-04-24T06:37:34.344Z,89.34
2023-04-24T06:40:03.235Z,89.16
2023-04-24T06:42:31.407Z,89.27
2023-04-24T06:44:59.885Z,89.19
2023-04-24T06:47:28.213Z,89.18
2023-04-24T06:49:56.843Z,88.89
2023-04-24T06:52:25.016Z,88.95
2023-04-24T06:54:53.188Z,88.87
2023-04-24T06:57:22.178Z,88.67
2023-04-24T06:59:50.250Z,88.61
2023-04-24T07:02:18.613Z,88.19
2023-04-24T07:04:48.749Z,88.30
2023-04-24T07:07:17.722Z,88.26
2023-04-24T07:09:46.737Z,88.63
2023-04-24T07:12:15.006Z,88.62
2023-04-24T07:14:43.955Z,88.66
2023-04-24T07:17:14.350Z,88.84
2023-04-24T07:19:43.156Z,88.92
2023-04-24T07:22:17.790Z,88.58
2023-04-24T07:24:46.193Z,88.64
2023-04-24T07:27:16.251Z,88.47
2023-04-24T07:29:44.881Z,88.04
2023-04-24T07:32:13.694Z,87.90
2023-04-24T07:34:41.971Z,87.86
2023-04-24T07:37:10.139Z,87.45
2023-04-24T07:39:38.312Z,87.15
2023-04-24T07:42:06.488Z,86.80
2023-04-24T07:44:34.662Z,86.50
2023-04-24T07:47:02.836Z,86.19
2023-04-24T07:49:30.999Z,85.74
2023-04-24T07:52:01.844Z,85.28
2023-04-24T07:54:30.634Z,85.10
2023-04-24T07:56:58.793Z,84.89
2023-04-24T07:59:26.967Z,84.46
2023-04-24T08:01:55.447Z,84.44
2023-04-24T08:04:23.857Z,83.97
2023-04-24T08:06:52.406Z,83.66
2023-04-24T08:09:20.579Z,83.12
2023-04-24T08:11:48.852Z,82.45
2023-04-24T08:14:17.148Z,82.31
2023-04-24T08:16:45.320Z,81.71
2023-04-24T08:19:13.469Z,81.51
2023-04-24T08:21:41.642Z,81.25
2023-04-24T08:24:09.797Z,80.35
2023-04-24T08:26:38.091Z,79.68
2023-04-24T08:29:07.399Z,79.35
2023-04-24T08:31:36.621Z,79.35
2023-04-24T08:34:04.858Z,79.07
2023-04-24T08:36:43.493Z,79.08
2023-04-24T08:39:15.554Z,78.93
2023-04-24T08:41:44.493Z,78.73
2023-04-24T08:44:16.507Z,78.12
2023-04-24T08:46:48.817Z,78.06
2023-04-24T08:49:17.852Z,77.69
2023-04-24T08:51:47.942Z,76.96
2023-04-24T08:54:16.155Z,76.09
2023-04-24T08:56:46.365Z,75.91
2023-04-24T08:59:15.873Z,75.17
2023-04-24T09:01:45.186Z,75.23
2023-04-24T09:04:17.805Z,74.94
2023-04-24T09:06:46.226Z,74.25
2023-04-24T09:09:14.801Z,73.04
2023-04-24T09:11:43.076Z,73.17
2023-04-24T09:14:12.121Z,72.97
2023-04-24T09:16:40.372Z,73.20
2023-04-24T09:19:08.516Z,71.92
2023-04-24T09:21:37.330Z,71.73
2023-04-24T09:24:08.245Z,71.66
2023-04-24T09:26:37.740Z,70.70
2023-04-24T09:29:06.240Z,70.39
2023-04-24T09:31:34.439Z,70.14
2023-04-24T09:34:09.636Z,69.13
2023-04-24T09:36:43.099Z,68.14
2023-04-24T09:39:14.016Z,67.83
2023-04-24T09:41:49.508Z,67.61
2023-04-24T09:44:22.924Z,67.19
2023-04-24T09:47:01.837Z,66.97
2023-04-24T09:49:31.739Z,66.70
2023-04-24T09:52:10.255Z,66.20
2023-04-24T09:54:39.653Z,66.03
2023-04-24T09:57:11.002Z,66.05
2023-04-24T09:59:47.268Z,66.14
2023-04-24T10:02:22.155Z,66.08
2023-04-24T10:05:00.282Z,66.16
2023-04-24T10:07:29.296Z,65.88
2023-04-24T10:09:57.670Z,65.57
2023-04-24T10:12:26.470Z,65.18
2023-04-24T10:14:54.731Z,65.39
2023-04-24T10:17:23.326Z,64.80
2023-04-24T10:19:51.588Z,64.72
2023-04-24T10:22:19.972Z,64.23
2023-04-24T10:24:48.853Z,63.84
2023-04-24T10:27:17.948Z,63.44
2023-04-24T10:29:46.848Z,63.28
2023-04-24T10:32:15.018Z,63.25
2023-04-24T10:34:43.183Z,63.39
2023-04-24T10:37:11.566Z,63.17
2023-04-24T10:39:41.473Z,63.36
2023-04-24T10:42:18.352Z,63.87
2023-04-24T10:44:49.392Z,63.87
2023-04-24T10:47:17.561Z,64.22
2023-04-24T10:49:45.834Z,64.59
2023-04-24T10:52:16.260Z,65.09
2023-04-24T10:54:48.435Z,65.23
2023-04-24T10:57:19.614Z,65.60
2023-04-24T10:59:49.478Z,65.68
2023-04-24T11:02:18.912Z,65.74
2023-04-24T11:04:47.574Z,65.70
2023-04-24T11:07:16.044Z,65.52
2023-04-24T11:09:44.928Z,64.71
2023-04-24T11:12:15.256Z,64.35
2023-04-24T11:14:59.544Z,64.32
2023-04-24T11:17:42.143Z,63.45
2023-04-24T11:20:26.986Z,63.69
2023-04-24T11:22:58.901Z,63.24
2023-04-24T11:25:32.337Z,62.95
2023-04-24T11:28:07.251Z,62.65
2023-04-24T11:30:36.563Z,62.59
2023-04-24T11:33:06.132Z,62.83
2023-04-24T11:35:40.503Z,62.63
2023-04-24T11:38:23.366Z,62.36
2023-04-24T11:40:53.722Z,62.39
2023-04-24T11:43:22.409Z,62.00
2023-04-24T11:45:51.029Z,61.94
2023-04-24T11:48:22.718Z,62.05
2023-04-24T11:50:51.843Z,62.25
2023-04-24T11:53:22.825Z,61.69
2023-04-24T11:55:51.163Z,61.28
2023-04-24T11:58:23.426Z,60.61
2023-04-24T12:00:58.326Z,60.41
2023-04-24T12:03:27.056Z,60.78
2023-04-24T12:06:09.602Z,60.94
2023-04-24T12:08:38.896Z,61.25
2023-04-24T12:11:08.465Z,61.62
2023-04-24T12:13:37.573Z,62.62
2023-04-24T12:16:07.115Z,63.33
2023-04-24T12:18:35.627Z,63.87
2023-04-24T12:21:23.970Z,64.81
2023-04-24T12:23:52.160Z,65.63
2023-04-24T12:26:21.329Z,66.34
2023-04-24T12:28:51.164Z,67.21
2023-04-24T12:31:22.112Z,68.12
2023-04-24T12:33:50.367Z,68.83
2023-04-24T12:36:18.546Z,69.36
2023-04-24T12:38:47.730Z,70.01
2023-04-24T12:41:16.520Z,70.85
2023-04-24T12:43:54.876Z,71.47
2023-04-24T12:46:23.250Z,72.23
2023-04-24T12:48:51.484Z,72.67
2023-04-24T12:51:19.654Z,73.45
2023-04-24T12:53:47.840Z,73.64
2023-04-24T12:56:16.006Z,74.09
2023-04-24T12:58:44.271Z,74.59
2023-04-24T13:01:12.609Z,74.95
2023-04-24T13:03:41.410Z,75.23
2023-04-24T13:06:09.931Z,75.66
2023-04-24T13:08:38.088Z,75.93
2023-04-24T13:11:06.366Z,76.21
2023-04-24T13:13:34.636Z,76.43
2023-04-24T13:16:03.272Z,76.78
2023-04-24T13:18:31.699Z,77.17
2023-04-24T13:20:59.869Z,77.82
2023-04-24T13:23:29.165Z,77.94
2023-04-24T13:25:59.595Z,78.51
2023-04-24T13:28:27.894Z,78.55
2023-04-24T13:30:56.037Z,78.43
2023-04-24T13:33:24.113Z,78.24
2023-04-24T13:35:52.388Z,78.44
2023-04-24T13:38:22.713Z,78.55
2023-04-24T13:40:51.188Z,78.39
2023-04-24T13:43:19.268Z,78.81
2023-04-24T13:45:47.368Z,78.90
2023-04-24T13:48:19.189Z,78.86
2023-04-24T13:50:49.511Z,79.06
2023-04-24T13:53:18.401Z,79.39
2023-04-24T13:55:46.571Z,78.91
2023-04-24T13:58:15.161Z,78.96
2023-04-24T14:00:43.527Z,79.11
2023-04-24T14:03:12.381Z,79.27
2023-04-24T14:05:40.916Z,79.49
2023-04-24T14:08:09.074Z,79.84
2023-04-24T14:10:37.342Z,80.01
2023-04-24T14:13:05.632Z,79.91
2023-04-24T14:15:33.816Z,80.20
2023-04-24T14:18:02.448Z,80.57
2023-04-24T14:20:32.185Z,80.72
2023-04-24T14:23:00.363Z,80.76
2023-04-24T14:25:28.532Z,80.89
2023-04-24T14:27:57.008Z,81.36
2023-04-24T14:30:25.081Z,81.53
2023-04-24T14:32:53.378Z,81.46
2023-04-24T14:35:21.538Z,81.63
2023-04-24T14:37:50.322Z,81.15
2023-04-24T14:40:39.542Z,80.93
2023-04-24T14:43:06.638Z,80.08
2023-04-24T14:45:34.905Z,79.94
2023-04-24T14:48:03.424Z,79.83
2023-04-24T14:50:31.961Z,79.59
2023-04-24T14:53:00.689Z,79.32
2023-04-24T14:55:30.156Z,79.68
2023-04-24T14:57:58.329Z,79.90
2023-04-24T15:00:26.601Z,80.13
2023-04-24T15:02:56.530Z,80.01
2023-04-24T15:05:26.443Z,80.63
2023-04-24T15:07:55.189Z,80.80
2023-04-24T15:10:24.961Z,81.19
2023-04-24T15:12:53.104Z,81.20
2023-04-24T15:15:21.263Z,80.87
2023-04-24T15:17:49.459Z,81.32
2023-04-24T15:20:17.812Z,81.51
2023-04-24T15:22:46.190Z,81.76
2023-04-24T15:25:14.379Z,81.91
2023-04-24T15:27:46.524Z,81.56
2023-04-24T15:30:15.216Z,81.82
2023-04-24T15:32:43.644Z,81.74
2023-04-24T15:35:11.759Z,81.71
2023-04-24T15:37:40.243Z,81.56
2023-04-24T15:40:09.637Z,80.98
2023-04-24T15:42:38.218Z,81.13
2023-04-24T15:45:07.013Z,81.49
2023-04-24T15:47:35.308Z,81.02
2023-04-24T15:50:04.150Z,81.18
2023-04-24T15:52:32.445Z,80.97
2023-04-24T15:55:00.516Z,81.32
2023-04-24T15:57:28.685Z,81.23
2023-04-24T15:59:56.888Z,80.87
2023-04-24T16:02:25.239Z,80.93
2023-04-24T16:04:54.299Z,81.12
2023-04-24T16:07:22.705Z,81.31
2023-04-24T16:09:51.002Z,81.30
2023-04-24T16:12:19.871Z,81.41
2023-04-24T16:14:48.255Z,81.46
2023-04-24T16:17:16.640Z,81.68
2023-04-24T16:19:44.800Z,81.65
2023-04-24T16:22:12.971Z,81.69
2023-04-24T16:24:41.037Z,81.98
2023-04-24T16:27:09.323Z,82.45
2023-04-24T16:29:37.489Z,82.27
2023-04-24T16:32:05.765Z,82.13
2023-04-24T16:34:33.932Z,82.35
2023-04-24T16:37:02.219Z,82.50
2023-04-24T16:39:30.699Z,82.70
2023-04-24T16:41:59.946Z,82.83
2023-04-24T16:44:29.022Z,83.04
2023-04-24T16:46:57.630Z,82.97
2023-04-24T16:49:31.199Z,83.20
2023-04-24T16:52:00.386Z,83.13
2023-04-24T16:54:30.700Z,83.53
2023-04-24T16:56:58.744Z,83.85
2023-04-24T16:59:26.916Z,83.70
2023-04-24T17:01:55.509Z,83.56
2023-04-24T17:04:23.789Z,83.38
2023-04-24T17:06:52.053Z,83.51
2023-04-24T17:09:20.836Z,82.95
2023-04-24T17:11:49.008Z,83.09
2023-04-24T17:14:17.425Z,82.87
2023-04-24T17:16:46.476Z,83.01
2023-04-24T17:19:14.750Z,82.86
2023-04-24T17:21:42.830Z,82.87
2023-04-24T17:24:11.107Z,82.49
2023-04-24T17:26:39.270Z,82.70
2023-04-24T17:29:07.344Z,82.64
2023-04-24T17:31:35.628Z,82.60
2023-04-24T17:34:04.348Z,82.56
2023-04-24T17:36:32.574Z,82.70
2023-04-24T17:39:00.857Z,82.76
2023-04-24T17:41:29.037Z,82.99
2023-04-24T17:43:57.195Z,83.08
2023-04-24T17:46:25.286Z,83.36
2023-04-24T17:48:53.752Z,83.60
2023-04-24T17:51:22.227Z,83.98
2023-04-24T17:53:50.697Z,83.90
2023-04-24T17:56:18.977Z,84.34
2023-04-24T17:58:47.309Z,84.52
2023-04-24T18:01:15.775Z,84.76
2023-04-24T18:03:44.794Z,85.28
2023-04-24T18:06:17.523Z,85.67
2023-04-24T18:08:45.875Z,85.96
2023-04-24T18:11:14.257Z,85.84
2023-04-24T18:13:43.150Z,86.12
2023-04-24T18:16:11.369Z,86.33
2023-04-24T18:18:39.795Z,86.45
2023-04-24T18:21:07.970Z,86.45
2023-04-24T18:23:36.555Z,86.18
2023-04-24T18:26:04.720Z,86.42
2023-04-24T18:28:34.828Z,86.55
2023-04-24T18:31:03.047Z,86.51
2023-04-24T18:33:31.696Z,86.62
2023-04-24T18:36:00.413Z,86.66
2023-04-24T18:38:28.665Z,86.79
2023-04-24T18:40:56.839Z,86.98
2023-04-24T18:43:25.001Z,86.97
2023-04-24T18:45:53.281Z,87.15
2023-04-24T18:48:21.963Z,87.06
2023-04-24T18:50:50.134Z,87.41
2023-04-24T18:53:18.451Z,87.29
2023-04-24T18:55:46.593Z,87.39
2023-04-24T18:58:14.854Z,87.44
2023-04-24T19:00:43.064Z,87.54
2023-04-24T19:03:11.733Z,87.46
2023-04-24T19:05:40.085Z,87.46
2023-04-24T19:08:08.464Z,87.66
2023-04-24T19:10:36.967Z,87.82
2023-04-24T19:13:06.143Z,87.80
2023-04-24T19:15:34.208Z,87.90
2023-04-24T19:18:02.535Z,88.12
2023-04-24T19:20:31.015Z,88.20
2023-04-24T19:22:59.444Z,88.08
2023-04-24T19:25:27.619Z,88.21
2023-04-24T19:27:56.277Z,88.42
2023-04-24T19:30:24.376Z,88.43
2023-04-24T19:32:52.618Z,88.74
2023-04-24T19:35:21.006Z,88.92
2023-04-24T19:37:49.106Z,89.00
2023-04-24T19:40:17.775Z,88.91
2023-04-24T19:42:46.161Z,89.33
2023-04-24T19:45:14.530Z,89.41
2023-04-24T19:47:43.451Z,89.59
2023-04-24T19:50:12.109Z,89.70
2023-04-24T19:52:40.491Z,89.81
2023-04-24T19:55:09.167Z,89.96
2023-04-24T19:57:37.451Z,90.12
2023-04-24T20:00:06.845Z,90.11
2023-04-24T20:02:35.678Z,90.17
2023-04-24T20:05:05.306Z,90.23
2023-04-24T20:07:33.408Z,90.28
2023-04-24T20:10:01.727Z,90.26
2023-04-24T20:12:29.857Z,90.23
2023-04-24T20:14:58.024Z,90.16
2023-04-24T20:17:26.414Z,90.16
2023-04-24T20:19:54.897Z,89.91
2023-04-24T20:22:23.158Z,89.76
2023-04-24T20:24:51.944Z,89.51
2023-04-24T20:27:21.056Z,88.75
2023-04-24T20:29:49.207Z,88.13
2023-04-24T20:32:17.487Z,87.43
2023-04-24T20:34:45.657Z,86.91
2023-04-24T20:37:13.694Z,86.43
2023-04-24T20:39:42.207Z,85.63
2023-04-24T20:42:11.414Z,85.06
2023-04-24T20:44:39.575Z,84.53
2023-04-24T20:47:07.827Z,84.01
2023-04-24T20:49:36.245Z,83.60
2023-04-24T20:52:04.606Z,83.16
2023-04-24T20:54:32.788Z,82.80
2023-04-24T20:57:02.077Z,82.48
2023-04-24T20:59:30.247Z,82.30
2023-04-24T21:01:58.376Z,81.99
2023-04-24T21:04:26.672Z,81.72
2023-04-24T21:06:54.864Z,81.49
2023-04-24T21:09:23.045Z,81.20
2023-04-24T21:11:51.106Z,81.05
2023-04-24T21:14:19.286Z,80.75
2023-04-24T21:16:47.617Z,80.62
2023-04-24T21:19:15.931Z,80.42
2023-04-24T21:21:44.001Z,80.33
2023-04-24T21:24:12.175Z,80.09
2023-04-24T21:26:40.241Z,80.03
2023-04-24T21:29:08.313Z,79.92
2023-04-24T21:31:36.613Z,79.96
2023-04-24T21:34:05.081Z,79.97
2023-04-24T21:36:33.760Z,79.87
2023-04-24T21:39:01.919Z,79.84
2023-04-24T21:41:30.194Z,79.88
2023-04-24T21:43:59.389Z,79.80
2023-04-24T21:46:27.679Z,79.75
2023-04-24T21:48:55.836Z,79.70
2023-04-24T21:51:24.109Z,79.68
2023-04-24T21:53:52.283Z,79.70
2023-04-24T21:56:20.659Z,79.55
2023-04-24T21:58:48.849Z,79.47
2023-04-24T22:01:17.160Z,79.27
2023-04-24T22:03:45.526Z,79.18
2023-04-24T22:06:14.889Z,79.11
2023-04-24T22:08:47.488Z,79.02
2023-04-24T22:11:25.930Z,78.99
2023-04-24T22:13:55.691Z,78.73
2023-04-24T22:16:24.388Z,78.79
2023-04-24T22:18:55.628Z,78.58
2023-04-24T22:21:24.044Z,78.60
2023-04-24T22:23:52.554Z,78.50
2023-04-24T22:26:21.206Z,78.41
2023-04-24T22:28:49.532Z,78.35
2023-04-24T22:31:17.934Z,78.28
2023-04-24T22:33:49.518Z,78.15
2023-04-24T22:36:18.150Z,78.00
2023-04-24T22:38:46.216Z,77.80
2023-04-24T22:41:14.608Z,77.70
2023-04-24T22:43:42.764Z,77.83
2023-04-24T22:46:10.936Z,77.74
2023-04-24T22:48:39.264Z,77.71
2023-04-24T22:51:07.382Z,77.50
2023-04-24T22:53:36.886Z,77.56
2023-04-24T22:56:05.978Z,77.59
2023-04-24T22:58:34.154Z,77.48
2023-04-24T23:01:02.293Z,77.41
2023-04-24T23:03:31.814Z,77.30
2023-04-24T23:06:00.108Z,77.22
2023-04-24T23:08:28.383Z,77.25
2023-04-24T23:10:57.069Z,77.17
2023-04-24T23:13:26.265Z,77.22
2023-04-24T23:15:54.930Z,77.29
2023-04-24T23:18:23.221Z,77.20
2023-04-24T23:20:52.102Z,77.20
2023-04-24T23:23:20.275Z,77.22
2023-04-24T23:25:48.449Z,77.28
2023-04-24T23:28:17.247Z,77.33
2023-04-24T23:30:45.409Z,77.35
2023-04-24T23:33:14.477Z,77.30
2023-04-24T23:35:42.682Z,77.27
2023-04-24T23:38:11.257Z,77.26
2023-04-24T23:40:39.533Z,77.28
2023-04-24T23:43:08.721Z,77.33
2023-04-24T23:45:37.332Z,77.49
2023-04-24T23:48:06.100Z,77.43
2023-04-24T23:50:34.595Z,77.43
2023-04-24T23:53:02.874Z,77.54
2023-04-24T23:55:31.037Z,77.31
2023-04-24T23:57:59.402Z,77.36
